Time;durP1;ratioP1;P1;durP2;ratioP2;P2;SDS_P1;SDS_P2;PMS_P1;PMS_P2;Temp;Humidity;BMP_temperature;BMP_pressure;BME280_temperature;BME280_humidity;BME280_pressure;Samples;Min_cycle;Max_cycle;Signal;HPM_P1;HPM_P2
2022/10/04 00:01:11;;;;;;;26.33;5.90;;;;;;;-145.49;100.00;62790.56;4993780;28;20065;-74
2022/10/04 00:03:48;;;;;;;31.10;7.25;;;;;;;-145.49;100.00;62790.56;4976461;28;20053;-73
2022/10/04 00:06:21;;;;;;;52.20;7.40;;;;;;;-145.49;100.00;62790.56;4964221;28;20050;-73
2022/10/04 00:08:54;;;;;;;46.35;7.75;;;;;;;-145.49;100.00;62790.56;4972447;28;20034;-73
2022/10/04 00:11:34;;;;;;;94.53;11.52;;;;;;;-145.49;100.00;62790.56;4965901;28;20039;-73
2022/10/04 00:14:09;;;;;;;51.70;9.30;;;;;;;-145.49;100.00;62790.56;4992157;28;20035;-73
2022/10/04 00:16:38;;;;;;;12.85;4.63;;;;;;;-145.49;100.00;62790.56;4960161;28;20554;-73
2022/10/04 00:19:13;;;;;;;9.07;4.93;;;;;;;-145.49;100.00;62790.56;4985023;28;20026;-73
2022/10/04 00:22:13;;;;;;;28.38;6.25;;;;;;;-145.49;100.00;62790.56;4970081;28;20039;-73
2022/10/04 00:24:59;;;;;;;62.95;7.10;;;;;;;-145.49;100.00;62790.56;4986869;28;20041;-73
2022/10/04 00:27:30;;;;;;;23.77;5.95;;;;;;;-145.49;100.00;62790.56;4972429;28;20408;-73
2022/10/04 00:30:02;;;;;;;22.30;5.45;;;;;;;-145.49;100.00;62790.56;4971885;28;20026;-73
2022/10/04 00:32:46;;;;;;;37.97;7.18;;;;;;;-145.49;100.00;62790.56;4976040;28;20038;-73
2022/10/04 00:35:24;;;;;;;14.32;5.32;;;;;;;-145.49;100.00;62790.56;4971601;28;20026;-73
2022/10/04 00:38:06;;;;;;;36.15;7.00;;;;;;;-145.49;100.00;62790.56;4980844;28;20045;-73
2022/10/04 00:40:45;;;;;;;76.97;8.45;;;;;;;-145.49;100.00;62790.56;4984639;28;20035;-73
2022/10/04 00:43:39;;;;;;;69.70;8.65;;;;;;;-145.49;100.00;62790.56;4973779;28;20408;-73
2022/10/04 00:46:22;;;;;;;23.80;4.97;;;;;;;-145.49;100.00;62790.56;4986812;28;20058;-73
2022/10/04 00:48:55;;;;;;;18.98;4.85;;;;;;;-145.49;100.00;62790.56;4960477;28;20035;-73
2022/10/04 00:51:42;;;;;;;13.13;5.93;;;;;;;-145.49;100.00;62790.56;4984271;28;20038;-72
2022/10/04 00:54:19;;;;;;;47.50;8.27;;;;;;;-145.49;100.00;62790.56;4994477;28;20026;-72
2022/10/04 00:56:54;;;;;;;16.80;5.28;;;;;;;-145.49;100.00;62790.56;4982734;28;20050;-72
2022/10/04 00:59:44;;;;;;;29.10;5.10;;;;;;;-145.49;100.00;62790.56;4987977;28;20034;-73
2022/10/04 01:02:16;;;;;;;90.50;9.65;;;;;;;-145.49;100.00;62790.56;4972586;28;20034;-73
2022/10/04 01:04:50;;;;;;;23.30;5.78;;;;;;;-145.49;100.00;62790.56;4973917;28;20047;-73
2022/10/04 01:07:25;;;;;;;71.43;7.60;;;;;;;-145.49;100.00;62790.56;4978566;28;20068;-73
2022/10/04 01:09:58;;;;;;;19.57;4.43;;;;;;;-145.49;100.00;62790.56;4984333;28;20046;-73
2022/10/04 01:12:51;;;;;;;33.58;6.38;;;;;;;-145.49;100.00;62790.56;4981773;28;20118;-73
2022/10/04 01:15:20;;;;;;;45.08;8.20;;;;;;;-145.49;100.00;62790.56;4978687;28;20144;-73
2022/10/04 01:18:19;;;;;;;29.02;5.97;;;;;;;-145.49;100.00;62790.56;4979872;28;20042;-73
2022/10/04 01:21:22;;;;;;;17.05;4.15;;;;;;;-145.49;100.00;62790.56;4984300;28;20046;-73
2022/10/04 01:23:57;;;;;;;13.43;4.28;;;;;;;-145.49;100.00;62790.56;4983161;28;20057;-73
2022/10/04 01:26:30;;;;;;;27.02;4.88;;;;;;;-145.49;100.00;62790.56;4988539;28;20045;-73
2022/10/04 01:29:08;;;;;;;;;;;;;;;-145.49;100.00;62790.56;4976574;28;20038;-73
2022/10/04 01:31:37;;;;;;;56.60;6.13;;;;;;;-145.49;100.00;62790.56;4998435;28;20280;-72
2022/10/04 01:34:05;;;;;;;25.13;4.05;;;;;;;-145.49;100.00;62790.56;4982152;28;20030;-73
2022/10/04 01:36:35;;;;;;;22.63;6.65;;;;;;;-145.49;100.00;62790.56;4989001;28;20049;-73
2022/10/04 01:39:05;;;;;;;39.78;6.30;;;;;;;-145.49;100.00;62790.56;4973271;28;20034;-73
2022/10/04 01:41:40;;;;;;;39.40;5.80;;;;;;;-145.49;100.00;62790.56;4969523;28;20045;-73
2022/10/04 01:44:19;;;;;;;52.70;8.23;;;;;;;-145.49;100.00;62790.56;4991071;28;20056;-73
2022/10/04 01:46:51;;;;;;;50.40;7.20;;;;;;;-145.49;100.00;62790.56;4975265;28;20038;-73
2022/10/04 01:49:28;;;;;;;25.90;4.43;;;;;;;-145.49;100.00;62790.56;4978386;28;20053;-73
2022/10/04 01:52:18;;;;;;;39.30;4.82;;;;;;;-145.49;100.00;62790.56;4980891;28;20412;-73
2022/10/04 01:54:57;;;;;;;48.33;6.05;;;;;;;-145.49;100.00;62790.56;4980065;28;20093;-73
2022/10/04 01:57:36;;;;;;;120.32;16.60;;;;;;;-145.49;100.00;62790.56;4983254;28;20422;-73
2022/10/04 02:00:09;;;;;;;46.80;6.43;;;;;;;-145.49;100.00;62790.56;4976263;28;20405;-73
2022/10/04 02:02:59;;;;;;;31.90;6.13;;;;;;;-145.49;100.00;62790.56;4977423;28;20047;-73
2022/10/04 02:05:41;;;;;;;45.35;7.90;;;;;;;-145.49;100.00;62790.56;4981087;28;20046;-73
2022/10/04 02:08:15;;;;;;;15.93;5.28;;;;;;;-145.49;100.00;62790.56;4996315;28;20042;-73
2022/10/04 02:10:49;;;;;;;59.28;7.47;;;;;;;-145.49;100.00;62790.56;4976603;28;20045;-73
2022/10/04 02:13:17;;;;;;;26.25;4.30;;;;;;;-145.49;100.00;62790.56;4985855;28;20369;-73
2022/10/04 02:15:46;;;;;;;16.05;3.70;;;;;;;-145.49;100.00;62790.56;4967271;28;20038;-73
2022/10/04 02:18:16;;;;;;;18.30;4.07;;;;;;;-145.49;100.00;62790.56;4975770;28;20026;-73
2022/10/04 02:20:43;;;;;;;38.03;5.95;;;;;;;-145.49;100.00;62790.56;4977289;28;20064;-73
2022/10/04 02:23:17;;;;;;;15.27;4.03;;;;;;;-145.49;100.00;62790.56;4983289;28;20492;-73
2022/10/04 02:25:48;;;;;;;22.63;4.65;;;;;;;-145.49;100.00;62790.56;4983341;28;20538;-73
2022/10/04 02:28:26;;;;;;;38.03;6.82;;;;;;;-145.49;100.00;62790.56;4969802;28;20096;-73
2022/10/04 02:33:54;;;;;;;31.27;4.75;;;;;;;-145.49;100.00;62790.56;4944182;28;20043;-73
2022/10/04 02:36:25;;;;;;;13.80;4.63;;;;;;;-145.49;100.00;62790.56;4960925;28;20404;-73
2022/10/04 02:39:00;;;;;;;24.25;5.25;;;;;;;-145.49;100.00;62790.56;4980942;28;20057;-73
2022/10/04 02:41:53;;;;;;;38.15;5.93;;;;;;;-145.49;100.00;62790.56;4953333;28;20047;-73
2022/10/04 02:44:29;;;;;;;28.50;5.53;;;;;;;-145.49;100.00;62790.56;4994018;28;20038;-73
2022/10/04 02:47:07;;;;;;;;;;;;;;;-145.49;100.00;62790.56;4981487;28;20030;-73
2022/10/04 02:49:42;;;;;;;53.80;6.82;;;;;;;-145.49;100.00;62790.56;4972086;28;19971;-73
2022/10/04 02:52:21;;;;;;;30.35;5.22;;;;;;;-145.49;100.00;62790.56;4951874;28;20038;-72
2022/10/04 02:55:23;;;;;;;18.17;3.72;;;;;;;-145.49;100.00;62790.56;4979565;28;20563;-72
2022/10/04 02:57:55;;;;;;;36.83;6.53;;;;;;;-145.49;100.00;62790.56;4974020;28;20516;-73
2022/10/04 03:00:30;;;;;;;12.30;4.55;;;;;;;-145.49;100.00;62790.56;4978020;28;20038;-73
2022/10/04 03:03:17;;;;;;;54.50;6.38;;;;;;;-145.49;100.00;62790.56;4991550;28;20042;-72
2022/10/04 03:05:56;;;;;;;22.98;5.00;;;;;;;-145.49;100.00;62790.56;4978458;28;20401;-73
2022/10/04 03:08:27;;;;;;;43.90;6.57;;;;;;;-145.49;100.00;62790.56;4987356;28;20054;-73
2022/10/04 03:10:58;;;;;;;17.50;4.65;;;;;;;-145.49;100.00;62790.56;4976826;28;20049;-73
2022/10/04 03:13:27;;;;;;;54.97;8.43;;;;;;;-145.49;100.00;62790.56;4987733;28;20377;-73
2022/10/04 03:15:58;;;;;;;21.77;5.28;;;;;;;-145.49;100.00;62790.56;4993695;28;20038;-73
2022/10/04 03:18:28;;;;;;;26.95;3.78;;;;;;;-145.49;100.00;62790.56;4982186;28;20042;-73
2022/10/04 03:20:59;;;;;;;4.10;2.88;;;;;;;-145.49;100.00;62790.56;4980528;28;20046;-72
2022/10/04 03:23:29;;;;;;;27.02;3.88;;;;;;;-145.49;100.00;62790.56;4977893;28;20046;-73
2022/10/04 03:26:33;;;;;;;13.77;4.28;;;;;;;-145.49;100.00;62790.56;4985869;28;20041;-73
2022/10/04 03:29:00;;;;;;;23.33;3.93;;;;;;;-145.49;100.00;62790.56;4977846;23;20070;-73
2022/10/04 03:31:27;;;;;;;7.32;3.35;;;;;;;-145.49;100.00;62790.56;4964470;28;20039;-73
2022/10/04 03:33:57;;;;;;;34.45;6.05;;;;;;;-145.49;100.00;62790.56;4964469;28;20500;-73
2022/10/04 03:36:25;;;;;;;19.05;4.38;;;;;;;-145.49;100.00;62790.56;4938842;28;20049;-73
2022/10/04 03:38:56;;;;;;;8.25;3.90;;;;;;;-145.49;100.00;62790.56;4966901;28;20038;-73
2022/10/04 03:41:24;;;;;;;14.77;3.90;;;;;;;-145.49;100.00;62790.56;4969676;28;20039;-73
2022/10/04 03:43:54;;;;;;;14.23;4.28;;;;;;;-145.49;100.00;62790.56;4970147;28;20043;-73
2022/10/04 03:46:24;;;;;;;6.22;3.40;;;;;;;-145.49;100.00;62790.56;4968309;28;20043;-73
2022/10/04 03:48:55;;;;;;;9.80;4.88;;;;;;;-145.49;100.00;62790.56;4969083;28;20374;-74
2022/10/04 03:51:28;;;;;;;8.35;4.63;;;;;;;-145.49;100.00;62790.56;4969736;28;20035;-73
2022/10/04 03:54:04;;;;;;;24.55;4.40;;;;;;;-145.49;100.00;62790.56;4970212;28;20046;-73
2022/10/04 03:56:36;;;;;;;8.55;4.40;;;;;;;-145.49;100.00;62790.56;4971973;28;20485;-74
2022/10/04 03:59:05;;;;;;;8.63;4.75;;;;;;;-145.49;100.00;62790.56;4966270;28;20034;-74
2022/10/04 04:02:00;;;;;;;12.05;3.65;;;;;;;-145.49;100.00;62790.56;4967708;28;20045;-73
2022/10/04 04:04:58;;;;;;;33.42;3.80;;;;;;;-145.49;100.00;62790.56;4962987;28;20054;-73
2022/10/04 04:07:46;;;;;;;40.25;5.22;;;;;;;-145.49;100.00;62790.56;4968273;28;20400;-73
2022/10/04 04:10:36;;;;;;;39.55;6.78;;;;;;;-145.49;100.00;62790.56;4968102;28;20038;-74
2022/10/04 04:13:14;;;;;;;16.15;3.97;;;;;;;-145.49;100.00;62790.56;4965302;28;20080;-72
2022/10/04 04:15:44;;;;;;;22.48;4.63;;;;;;;-145.49;100.00;62790.56;4968909;28;20039;-73
2022/10/04 04:18:34;;;;;;;69.88;8.10;;;;;;;-145.49;100.00;62790.56;4974241;28;20039;-73
2022/10/04 04:21:05;;;;;;;49.05;6.50;;;;;;;-145.49;100.00;62790.56;4968122;28;20037;-72
2022/10/04 04:23:36;;;;;;;107.05;13.55;;;;;;;-145.49;100.00;62790.56;4973555;28;20402;-72
2022/10/04 04:26:16;;;;;;;49.38;6.20;;;;;;;-145.49;100.00;62790.56;4973838;28;20035;-72
2022/10/04 04:28:50;;;;;;;137.05;14.20;;;;;;;-145.49;100.00;62790.56;4971320;28;20058;-72
2022/10/04 04:31:24;;;;;;;49.97;7.60;;;;;;;-145.49;100.00;62790.56;4969357;28;20034;-72
2022/10/04 04:34:01;;;;;;;54.20;7.80;;;;;;;-145.49;100.00;62790.56;4972752;28;20432;-72
2022/10/04 04:36:31;;;;;;;67.05;10.20;;;;;;;-145.49;100.00;62790.56;4974672;28;20041;-73
2022/10/04 04:39:35;;;;;;;75.50;10.10;;;;;;;-145.49;100.00;62790.56;4974881;28;20093;-73
2022/10/04 04:42:16;;;;;;;;;;;;;;;-145.49;100.00;62790.56;4968808;28;20051;-72
2022/10/04 04:44:54;;;;;;;17.92;6.15;;;;;;;-145.49;100.00;62790.56;4971734;28;19918;-73
2022/10/04 04:47:34;;;;;;;15.38;3.38;;;;;;;-145.49;100.00;62790.56;4976159;28;20366;-73
2022/10/04 04:50:18;;;;;;;5.03;3.63;;;;;;;-145.49;100.00;62790.56;4974664;28;20038;-73
2022/10/04 04:53:01;;;;;;;7.28;2.33;;;;;;;-145.49;100.00;62790.56;4974013;28;20477;-72
2022/10/04 04:55:40;;;;;;;4.03;2.67;;;;;;;-145.49;100.00;62790.56;4969969;28;20034;-74
2022/10/04 04:58:15;;;;;;;8.15;2.95;;;;;;;-145.49;100.00;62790.56;4967649;28;20046;-72
2022/10/04 05:00:41;;;;;;;7.38;2.88;;;;;;;-145.49;100.00;62790.56;4987534;28;20453;-74
2022/10/04 05:03:18;;;;;;;10.50;3.03;;;;;;;-145.49;100.00;62790.56;4969247;28;20460;-74
2022/10/04 05:05:46;;;;;;;4.30;2.80;;;;;;;-145.49;100.00;62790.56;4975105;28;20047;-73
2022/10/04 05:08:23;;;;;;;5.97;3.80;;;;;;;-145.49;100.00;62790.56;4975421;28;20034;-74
2022/10/04 05:11:07;;;;;;;15.60;2.75;;;;;;;-145.49;100.00;62790.56;4974318;28;20038;-74
2022/10/04 05:13:56;;;;;;;6.22;3.97;;;;;;;-145.49;100.00;62790.56;4975130;28;20497;-73
2022/10/04 05:16:38;;;;;;;6.63;4.68;;;;;;;-145.49;100.00;62790.56;4963378;28;20489;-74
2022/10/04 05:19:47;;;;;;;3.85;2.72;;;;;;;-145.49;100.00;62790.56;4975607;28;20038;-74
2022/10/04 05:22:20;;;;;;;3.15;2.58;;;;;;;-145.49;100.00;62790.56;4971815;28;20039;-74
2022/10/04 05:24:53;;;;;;;3.40;2.00;;;;;;;-145.49;100.00;62790.56;4975608;28;20038;-73
2022/10/04 05:27:39;;;;;;;4.57;3.33;;;;;;;-145.49;100.00;62790.56;4974299;28;20397;-74
2022/10/04 05:30:08;;;;;;;6.72;3.00;;;;;;;-145.49;100.00;62790.56;4973470;23;20051;-83
2022/10/04 05:32:58;;;;;;;2.63;2.28;;;;;;;-145.49;100.00;62790.56;4922167;29;20039;-83
2022/10/04 05:35:41;;;;;;;3.42;2.53;;;;;;;-145.49;100.00;62790.56;4938782;29;20046;-80
2022/10/04 05:38:19;;;;;;;3.90;2.55;;;;;;;-145.49;100.00;62790.56;4936955;29;20051;-81
2022/10/04 05:41:05;;;;;;;3.88;2.25;;;;;;;-145.49;100.00;62790.56;4946714;29;20380;-80
2022/10/04 05:43:33;;;;;;;4.38;2.78;;;;;;;-145.49;100.00;62790.56;4955061;29;20035;-81
2022/10/04 05:46:32;;;;;;;7.68;2.50;;;;;;;-145.49;100.00;62790.56;4951102;28;20026;-80
2022/10/04 05:49:01;;;;;;;5.97;3.03;;;;;;;-145.49;100.00;62790.56;4952536;28;20524;-81
2022/10/04 05:51:52;;;;;;;5.63;3.05;;;;;;;-145.49;100.00;62790.56;4952568;29;20035;-81
2022/10/04 05:54:21;;;;;;;3.80;2.67;;;;;;;-145.49;100.00;62790.56;4946888;28;20047;-82
2022/10/04 05:57:09;;;;;;;3.92;2.38;;;;;;;-145.49;100.00;62790.56;4947078;29;20047;-81
2022/10/04 05:59:53;;;;;;;6.65;3.78;;;;;;;-145.49;100.00;62790.56;4946867;29;20039;-81
2022/10/04 06:02:55;;;;;;;4.15;2.85;;;;;;;-145.49;100.00;62790.56;4947293;28;20039;-81
2022/10/04 06:05:37;;;;;;;4.38;2.63;;;;;;;-145.49;100.00;62790.56;4951781;29;20042;-81
2022/10/04 06:08:08;;;;;;;8.40;2.40;;;;;;;-145.49;100.00;62790.56;4951635;29;20038;-81
2022/10/04 06:10:49;;;;;;;3.38;3.08;;;;;;;-145.49;100.00;62790.56;4961447;28;20282;-82
2022/10/04 06:13:50;;;;;;;4.40;3.38;;;;;;;-145.49;100.00;62790.56;4940471;29;20031;-81
2022/10/04 06:16:45;;;;;;;5.43;2.38;;;;;;;-145.49;100.00;62790.56;4942293;29;20042;-81
2022/10/04 06:19:42;;;;;;;3.90;3.10;;;;;;;-145.49;100.00;62790.56;4947897;29;20509;-82
2022/10/04 06:22:22;;;;;;;3.55;3.05;;;;;;;-145.49;100.00;62790.56;4958219;28;20038;-81
2022/10/04 06:25:04;;;;;;;4.38;2.67;;;;;;;-145.49;100.00;62790.56;4963442;28;20528;-82
2022/10/04 06:27:40;;;;;;;2.22;1.55;;;;;;;-145.49;100.00;62790.56;4953706;29;20035;-81
2022/10/04 06:30:15;;;;;;;3.88;1.88;;;;;;;-145.49;100.00;62790.56;4935239;29;20048;-81
2022/10/04 06:33:02;;;;;;;7.63;2.90;;;;;;;-145.49;100.00;62790.56;4947093;29;20040;-82
2022/10/04 06:35:33;;;;;;;3.60;2.83;;;;;;;-145.49;100.00;62790.56;4953853;28;20054;-82
2022/10/04 06:38:22;;;;;;;4.20;2.35;;;;;;;-145.49;100.00;62790.56;4931344;29;20520;-82
2022/10/04 06:41:14;;;;;;;3.65;1.65;;;;;;;-145.49;100.00;62790.56;4952405;28;20059;-82
2022/10/04 06:43:46;;;;;;;2.60;2.40;;;;;;;-145.49;100.00;62790.56;4938121;28;20047;-82
2022/10/04 06:46:43;;;;;;;5.80;2.20;;;;;;;-145.49;100.00;62790.56;4965465;28;20374;-82
2022/10/04 06:49:12;;;;;;;3.22;2.05;;;;;;;-145.49;100.00;62790.56;4967900;28;20035;-82
2022/10/04 06:52:05;;;;;;;3.20;2.53;;;;;;;-145.49;100.00;62790.56;4968597;28;20378;-82
2022/10/04 06:54:45;;;;;;;4.70;3.15;;;;;;;-145.49;100.00;62790.56;4951681;29;20050;-82
2022/10/04 06:57:47;;;;;;;6.25;3.28;;;;;;;-145.49;100.00;62790.56;4946422;29;20058;-81
2022/10/04 07:00:25;;;;;;;3.05;2.47;;;;;;;-145.49;100.00;62790.56;4947760;29;20031;-81
2022/10/04 07:02:52;;;;;;;4.47;2.20;;;;;;;-145.49;100.00;62790.56;4944546;29;20043;-81
2022/10/04 07:05:49;;;;;;;9.10;2.85;;;;;;;-145.49;100.00;62790.56;4945050;29;20047;-80
2022/10/04 07:08:30;;;;;;;3.90;3.35;;;;;;;-145.49;100.00;62790.56;4949011;28;20046;-81
2022/10/04 07:11:22;;;;;;;5.72;2.70;;;;;;;-145.49;100.00;62790.56;4950424;29;20042;-80
2022/10/04 07:14:17;;;;;;;5.40;2.63;;;;;;;-145.49;100.00;62790.56;4963232;28;20046;-78
2022/10/04 07:17:04;;;;;;;3.97;2.45;;;;;;;-145.49;100.00;62790.56;4941097;29;20039;-81
2022/10/04 07:19:37;;;;;;;2.65;2.17;;;;;;;-145.49;100.00;62790.56;4952829;29;20054;-81
2022/10/04 07:22:10;;;;;;;5.82;2.50;;;;;;;-145.49;100.00;62790.56;4944829;28;20043;-81
2022/10/04 07:24:55;;;;;;;3.28;2.22;;;;;;;-145.49;100.00;62790.56;4960277;28;20107;-81
2022/10/04 07:27:26;;;;;;;3.97;2.38;;;;;;;-145.49;100.00;62790.56;4950900;29;20035;-82
2022/10/04 07:29:59;;;;;;;3.33;2.15;;;;;;;-145.49;100.00;62790.56;4935521;29;20035;-81
2022/10/04 07:32:50;;;;;;;5.65;2.13;;;;;;;-145.49;100.00;62790.56;4948176;29;20124;-82
2022/10/04 07:35:43;;;;;;;17.02;3.20;;;;;;;-145.49;100.00;62790.56;4974838;28;20502;-82
2022/10/04 07:38:36;;;;;;;3.90;2.40;;;;;;;-145.49;100.00;62790.56;4950651;29;20409;-82
2022/10/04 07:41:11;;;;;;;4.80;2.63;;;;;;;-145.49;100.00;62790.56;4946878;29;20047;-81
2022/10/04 07:43:50;;;;;;;3.83;2.33;;;;;;;-145.49;100.00;62790.56;4949878;28;20495;-81
2022/10/04 07:46:40;;;;;;;5.03;2.70;;;;;;;-145.49;100.00;62790.56;4948803;28;20045;-81
2022/10/04 07:49:19;;;;;;;4.30;2.00;;;;;;;-145.49;100.00;62790.56;4955361;28;20405;-82
2022/10/04 07:52:25;;;;;;;2.78;2.03;;;;;;;-145.49;100.00;62790.56;4936537;29;20046;-81
2022/10/04 07:55:16;;;;;;;3.05;2.28;;;;;;;-145.49;100.00;62790.56;4961914;28;20041;-82
2022/10/04 07:58:09;;;;;;;6.22;3.45;;;;;;;-145.49;100.00;62790.56;4947181;28;20031;-82
2022/10/04 08:00:43;;;;;;;3.90;2.30;;;;;;;-145.49;100.00;62790.56;4959931;28;20370;-83
2022/10/04 08:03:21;;;;;;;3.13;2.67;;;;;;;-145.49;100.00;62790.56;4939131;29;20402;-80
2022/10/04 08:05:57;;;;;;;3.50;2.95;;;;;;;-145.49;100.00;62790.56;4945355;28;20658;-81
2022/10/04 08:08:29;;;;;;;3.90;3.42;;;;;;;-145.49;100.00;62790.56;4949511;28;20043;-82
2022/10/04 08:11:24;;;;;;;4.95;2.95;;;;;;;-145.49;100.00;62790.56;4941283;29;20283;-82
2022/10/04 08:13:53;;;;;;;9.10;3.95;;;;;;;-145.49;100.00;62790.56;4945443;29;20382;-82
2022/10/04 08:16:46;;;;;;;3.22;2.72;;;;;;;-145.49;100.00;62790.56;4943994;28;20048;-82
2022/10/04 08:19:37;;;;;;;4.35;2.88;;;;;;;-145.49;100.00;62790.56;4954074;28;20042;-82
2022/10/04 08:22:32;;;;;;;4.85;2.67;;;;;;;-145.49;100.00;62790.56;4965689;28;20039;-82
2022/10/04 08:25:07;;;;;;;5.13;2.10;;;;;;;-145.49;100.00;62790.56;4949915;28;20039;-82
2022/10/04 08:31:39;;;;;;;5.55;2.40;;;;;;;-145.49;100.00;62790.56;4899798;29;20051;-82
2022/10/04 08:34:41;;;;;;;3.90;2.55;;;;;;;-145.49;100.00;62790.56;4972617;28;20038;-82
2022/10/04 08:37:44;;;;;;;6.90;3.67;;;;;;;-145.49;100.00;62790.56;4919929;28;20059;-82
2022/10/04 08:40:32;;;;;;;4.18;2.65;;;;;;;-145.49;100.00;62790.56;4950607;29;20027;-82
2022/10/04 08:43:43;;;;;;;5.00;3.10;;;;;;;-145.49;100.00;62790.56;4959231;28;20493;-82
2022/10/04 08:46:17;;;;;;;5.60;3.30;;;;;;;-145.49;100.00;62790.56;4941725;29;20036;-81
2022/10/04 08:48:58;;;;;;;4.22;3.83;;;;;;;-145.49;100.00;62790.56;4926417;29;20043;-82
2022/10/04 08:52:01;;;;;;;3.70;2.72;;;;;;;-145.49;100.00;62790.56;4948470;29;20031;-81
2022/10/04 08:54:59;;;;;;;4.72;2.97;;;;;;;-145.49;100.00;62790.56;4967437;28;20038;-81
2022/10/04 08:57:59;;;;;;;3.22;2.35;;;;;;;-145.49;100.00;62790.56;4962504;28;20035;-82
2022/10/04 09:00:47;;;;;;;5.80;2.65;;;;;;;-145.49;100.00;62790.56;4945088;29;20043;-82
2022/10/04 09:03:47;;;;;;;11.40;4.28;;;;;;;-145.49;100.00;62790.56;4949279;28;20058;-82
2022/10/04 09:06:50;;;;;;;8.20;4.13;;;;;;;-145.49;100.00;62790.56;4970450;28;20045;-82
2022/10/04 09:09:53;;;;;;;7.70;4.57;;;;;;;-145.49;100.00;62790.56;4954408;28;20058;-82
2022/10/04 09:12:31;;;;;;;4.07;3.38;;;;;;;-145.49;100.00;62790.56;4969271;28;20047;-82
2022/10/04 09:15:17;;;;;;;5.53;3.45;;;;;;;-145.49;100.00;62790.56;4960353;28;20050;-82
2022/10/04 09:18:14;;;;;;;4.15;2.72;;;;;;;-145.49;100.00;62790.56;4962151;28;20040;-82
2022/10/04 09:21:00;;;;;;;4.55;3.42;;;;;;;-145.49;100.00;62790.56;4944452;28;20036;-83
2022/10/04 09:24:03;;;;;;;4.32;3.28;;;;;;;-145.49;100.00;62790.56;4959844;28;20042;-82
2022/10/04 09:26:43;;;;;;;5.38;3.75;;;;;;;-145.49;100.00;62790.56;4929435;29;20035;-83
2022/10/04 09:29:34;;;;;;;3.35;2.95;;;;;;;-145.49;100.00;62790.56;4951180;29;20043;-83
2022/10/04 09:32:17;;;;;;;6.50;4.88;;;;;;;-145.49;100.00;62790.56;4952106;28;20034;-82
2022/10/04 09:35:05;;;;;;;4.88;3.53;;;;;;;-145.49;100.00;62790.56;4959812;28;20054;-83
2022/10/04 09:37:49;;;;;;;6.07;3.88;;;;;;;-145.49;100.00;62790.56;4959174;28;20040;-82
2022/10/04 09:40:34;;;;;;;6.25;3.42;;;;;;;-145.49;100.00;62790.56;4948510;29;20540;-82
2022/10/04 09:43:25;;;;;;;8.15;2.92;;;;;;;-145.49;100.00;62790.56;4950265;28;20400;-82
2022/10/04 09:46:03;;;;;;;3.75;2.92;;;;;;;-145.49;100.00;62790.56;4965501;28;20043;-82
2022/10/04 09:48:42;;;;;;;7.13;3.30;;;;;;;-145.49;100.00;62790.56;4962494;28;20043;-83
2022/10/04 09:51:30;;;;;;;9.02;3.70;;;;;;;-145.49;100.00;62790.56;4948352;29;20050;-82
2022/10/04 09:54:10;;;;;;;3.97;3.13;;;;;;;-145.49;100.00;62790.56;4965659;28;20042;-82
2022/10/04 09:57:26;;;;;;;6.53;3.85;;;;;;;-145.49;100.00;62790.56;4953731;28;20050;-83
2022/10/04 10:00:09;;;;;;;6.63;3.58;;;;;;;-145.49;100.00;62790.56;4946394;29;20035;-82
2022/10/04 10:03:01;;;;;;;3.95;2.72;;;;;;;-145.49;100.00;62790.56;4961500;28;20490;-83
2022/10/04 10:05:48;;;;;;;5.25;2.85;;;;;;;-145.49;100.00;62790.56;4968573;28;20055;-83
2022/10/04 10:08:29;;;;;;;3.40;2.53;;;;;;;-145.49;100.00;62790.56;4951939;29;20063;-82
2022/10/04 10:14:50;;;;;;;5.65;2.30;;;;;;;-145.49;100.00;62790.56;4951647;28;20386;-81
2022/10/04 10:17:36;;;;;;;4.03;3.50;;;;;;;-145.49;100.00;62790.56;4961066;28;20054;-82
2022/10/04 10:20:12;;;;;;;4.40;4.00;;;;;;;-145.49;100.00;62790.56;4956253;28;20393;-80
2022/10/04 10:23:00;;;;;;;4.35;2.92;;;;;;;-145.49;100.00;62790.56;4938739;29;20047;-82
2022/10/04 10:25:53;;;;;;;4.70;2.80;;;;;;;-145.49;100.00;62790.56;4961441;28;20374;-82
2022/10/04 10:28:43;;;;;;;3.83;2.60;;;;;;;-145.49;100.00;62790.56;4956992;28;20402;-81
2022/10/04 10:31:24;;;;;;;9.05;3.30;;;;;;;-145.49;100.00;62790.56;4946306;29;20043;-82
2022/10/04 10:34:13;;;;;;;;;;;;;;;-145.49;100.00;62790.56;4945392;29;20031;-83
2022/10/04 10:36:51;;;;;;;7.65;3.72;;;;;;;-145.49;100.00;62790.56;4965265;28;19914;-80
2022/10/04 10:39:36;;;;;;;11.95;3.53;;;;;;;-145.49;100.00;62790.56;4953224;28;20039;-81
2022/10/04 10:42:21;;;;;;;3.72;3.05;;;;;;;-145.49;100.00;62790.56;4942473;28;20056;-81
2022/10/04 10:45:13;;;;;;;4.88;3.50;;;;;;;-145.49;100.00;62790.56;4951590;28;20508;-81
2022/10/04 10:47:53;;;;;;;3.40;2.20;;;;;;;-145.49;100.00;62790.56;4960499;28;20043;-81
2022/10/04 10:50:59;;;;;;;6.70;3.05;;;;;;;-145.49;100.00;62790.56;4952520;28;20031;-82
2022/10/04 10:54:04;;;;;;;5.32;2.92;;;;;;;-145.49;100.00;62790.56;4950190;29;20058;-82
2022/10/04 10:56:46;;;;;;;5.47;2.97;;;;;;;-145.49;100.00;62790.56;4953148;28;20050;-82
2022/10/04 10:59:37;;;;;;;4.40;2.92;;;;;;;-145.49;100.00;62790.56;4969290;28;20043;-83
2022/10/04 11:02:43;;;;;;;7.90;3.97;;;;;;;-145.49;100.00;62790.56;4953719;29;20031;-83
2022/10/04 11:05:44;;;;;;;5.60;2.63;;;;;;;-145.49;100.00;62790.56;4948315;29;20039;-83
2022/10/04 11:08:30;;;;;;;4.35;2.50;;;;;;;-145.49;100.00;62790.56;4954566;28;20034;-82
2022/10/04 11:11:33;;;;;;;5.05;2.88;;;;;;;-145.49;100.00;62790.56;4958649;28;20054;-82
2022/10/04 11:14:23;;;;;;;4.32;2.55;;;;;;;-145.49;100.00;62790.56;4953242;29;20039;-82
2022/10/04 11:17:13;;;;;;;4.53;2.70;;;;;;;-145.49;100.00;62790.56;4954691;28;20053;-82
2022/10/04 11:20:04;;;;;;;3.50;2.67;;;;;;;-145.49;100.00;62790.56;4963426;28;20512;-82
2022/10/04 11:23:09;;;;;;;4.63;3.05;;;;;;;-145.49;100.00;62790.56;4937578;28;20051;-82
2022/10/04 11:25:47;;;;;;;4.20;2.50;;;;;;;-145.49;100.00;62790.56;4941907;28;20043;-81
2022/10/04 11:28:25;;;;;;;4.75;2.63;;;;;;;-145.49;100.00;62790.56;4933331;28;20492;-79
2022/10/04 11:31:18;;;;;;;5.75;2.47;;;;;;;-145.49;100.00;62790.56;4909261;29;20048;-73
2022/10/04 11:34:01;;;;;;;4.18;3.10;;;;;;;-145.49;100.00;62790.56;4928455;29;20048;-74
2022/10/04 11:36:36;;;;;;;5.05;3.85;;;;;;;-145.49;100.00;62790.56;4933743;29;20046;-73
2022/10/04 11:39:16;;;;;;;6.32;2.65;;;;;;;-145.49;100.00;62790.56;4920844;29;20493;-73
2022/10/04 11:42:16;;;;;;;3.55;2.80;;;;;;;-145.49;100.00;62790.56;4952153;28;20031;-73
2022/10/04 11:45:32;;;;;;;4.45;2.40;;;;;;;-145.49;100.00;62790.56;4950449;28;20054;-73
2022/10/04 11:48:14;;;;;;;3.80;3.13;;;;;;;-145.49;100.00;62790.56;4934382;29;20047;-74
2022/10/04 11:50:50;;;;;;;3.05;2.30;;;;;;;-145.49;100.00;62790.56;4948559;29;20047;-73
2022/10/04 11:53:20;;;;;;;4.90;2.85;;;;;;;-145.49;100.00;62790.56;4952292;29;20042;-74
2022/10/04 11:56:02;;;;;;;3.25;2.72;;;;;;;-145.49;100.00;62790.56;4951039;29;20051;-74
2022/10/04 11:58:53;;;;;;;2.35;2.15;;;;;;;-145.49;100.00;62790.56;4951461;29;20043;-74
2022/10/04 12:01:53;;;;;;;6.32;2.83;;;;;;;-145.49;100.00;62790.56;4946255;28;20046;-74
2022/10/04 12:04:25;;;;;;;5.07;3.10;;;;;;;-145.49;100.00;62790.56;4948591;28;20051;-72
2022/10/04 12:07:13;;;;;;;5.63;2.88;;;;;;;-145.49;100.00;62790.56;4940487;29;20501;-73
2022/10/04 12:10:08;;;;;;;5.60;3.25;;;;;;;-145.49;100.00;62790.56;4919538;29;20043;-73
2022/10/04 12:12:36;;;;;;;4.20;2.35;;;;;;;-145.49;100.00;62790.56;4905069;29;20051;-74
2022/10/04 12:15:38;;;;;;;6.82;3.28;;;;;;;-145.49;100.00;62790.56;4953422;29;20043;-74
2022/10/04 12:18:05;;;;;;;5.50;3.00;;;;;;;-145.49;100.00;62790.56;4907633;29;20051;-76
2022/10/04 12:20:56;;;;;;;3.15;2.53;;;;;;;-145.49;100.00;62790.56;4950335;28;20034;-73
2022/10/04 12:23:41;;;;;;;4.53;2.45;;;;;;;-145.49;100.00;62790.56;4950224;29;20050;-73
2022/10/04 12:26:38;;;;;;;4.35;3.42;;;;;;;-145.49;100.00;62790.56;4945731;29;20031;-74